»·PEaware :: N172SP KSBP-KSBP

N172SP :: KSBP-KSBP

FLIGHT INFORMATION

Flight Status: Arrived
Operator: Privately registered:
United States
More flights under this callsign
Pilot: Nick K. (20390)
Aircraft: CESSNA 172 SKYHAWK
(C172)
More flights by this aircraft type
Origin: KSBP San Luis Co Regl
United States
Destination: KSBP San Luis Co Regl
United States
More flights between these airports :: More routes between these airports
Route: +
File this flight plan on PilotEdge
Remarks:
Altitude:
(Current/Filed)
0ft
Speed:
(Current/Filed)
0kts
Departed: 11-Sep-18 03:13 PM
Arrived: 11-Sep-18 03:36 PM
Distance/Time
Traveled:
0nm/0:23
Distance/Time
To Go:
Arrived

Flight Plot

Page will automatically refresh every two minutes.


Map Options




Map Legend


Flown Route
Filed Route
Departure Airport
Arrival Airport
Navaid (VOR, NDB)
Fix

Horizontal Profiles

Position Reports

Time Latitude Longitude Heading Altitude Ground
Speed
11-Sep-18 14:50 35.238458 -120.639725 70 192ft 0kts
11-Sep-18 14:51 35.238458 -120.639725 70 192ft 0kts
11-Sep-18 14:52 35.238458 -120.639725 70 192ft 0kts
11-Sep-18 14:53 35.238458 -120.639725 70 192ft 0kts
11-Sep-18 14:54 35.238458 -120.639725 70 192ft 0kts
11-Sep-18 14:55 35.238458 -120.639725 70 192ft 0kts
11-Sep-18 14:56 35.238458 -120.639725 70 192ft 0kts
11-Sep-18 14:57 35.238458 -120.639725 70 192ft 0kts
11-Sep-18 14:58 35.238458 -120.639725 70 192ft 0kts
11-Sep-18 14:59 35.238458 -120.639725 70 192ft 0kts
11-Sep-18 15:00 35.238458 -120.639725 70 192ft 0kts
11-Sep-18 15:01 35.238458 -120.639725 70 192ft 0kts
11-Sep-18 15:02 35.238458 -120.639725 70 192ft 0kts
11-Sep-18 15:03 35.238458 -120.639725 70 192ft 0kts
11-Sep-18 15:04 35.238458 -120.639725 70 192ft 0kts
11-Sep-18 15:05 35.238458 -120.639725 70 192ft 0kts
11-Sep-18 15:06 35.238458 -120.639725 70 192ft 0kts
11-Sep-18 15:07 35.238458 -120.639725 70 192ft 0kts
11-Sep-18 15:08 35.238458 -120.639725 70 192ft 0kts
11-Sep-18 15:09 35.238038 -120.639965 189 191ft 6kts
11-Sep-18 15:10 35.234428 -120.633980 100 211ft 13kts
11-Sep-18 15:11 35.234498 -120.633701 201 212ft 0kts
11-Sep-18 15:12 35.234100 -120.633387 123 212ft 16kts
11-Sep-18 15:13 35.233188 -120.632417 206 212ft 0kts
11-Sep-18 15:14 35.233188 -120.632417 206 212ft 0kts
11-Sep-18 15:15 35.233962 -120.635051 306 208ft 53kts
11-Sep-18 15:16 35.246740 -120.655343 292 840ft 76kts
11-Sep-18 15:17 35.234750 -120.673168 171 1256ft 82kts
11-Sep-18 15:18 35.220717 -120.652507 121 1277ft 81kts
11-Sep-18 15:19 35.209516 -120.628282 124 1235ft 82kts
11-Sep-18 15:20 35.212580 -120.605535 28 1099ft 85kts
11-Sep-18 15:21 35.226032 -120.621022 303 652ft 77kts
11-Sep-18 15:22 35.235541 -120.637881 305 199ft 42kts
11-Sep-18 15:23 35.247115 -120.658244 290 771ft 78kts
11-Sep-18 15:24 35.235889 -120.677178 211 1232ft 81kts
11-Sep-18 15:25 35.220110 -120.658683 122 1182ft 94kts
11-Sep-18 15:26 35.209476 -120.631702 107 1239ft 87kts
11-Sep-18 15:27 35.204765 -120.602943 54 1025ft 85kts
11-Sep-18 15:28 35.220035 -120.609710 301 910ft 86kts
11-Sep-18 15:29 35.232397 -120.632329 305 297ft 63kts
11-Sep-18 15:30 35.241990 -120.649323 301 468ft 73kts
11-Sep-18 15:31 35.244643 -120.671678 210 1156ft 83kts
11-Sep-18 15:32 35.227455 -120.674911 131 1317ft 82kts
11-Sep-18 15:33 35.213891 -120.651529 116 1119ft 91kts
11-Sep-18 15:34 35.203548 -120.625726 114 1244ft 86kts
11-Sep-18 15:35 35.201994 -120.599766 31 1175ft 83kts
11-Sep-18 15:36 35.219354 -120.609835 305 886ft 85kts
11-Sep-18 15:37 35.231173 -120.630193 302 338ft 64kts
11-Sep-18 15:38 35.235243 -120.636540 73 204ft 0kts
11-Sep-18 15:39 35.235272 -120.636425 74 205ft 0kts
11-Sep-18 15:40 35.235864 -120.636370 344 205ft 5kts
11-Sep-18 15:41 35.236336 -120.636139 41 206ft 0kts
11-Sep-18 15:42 35.236354 -120.636119 42 206ft 0kts
11-Sep-18 15:43 35.236372 -120.636099 42 206ft 0kts
11-Sep-18 15:44 35.236390 -120.636079 42 206ft 0kts
11-Sep-18 15:45 35.236407 -120.636059 42 206ft 0kts
11-Sep-18 15:46 35.236424 -120.636039 43 206ft 0kts
11-Sep-18 15:47 35.236442 -120.636019 43 206ft 0kts
11-Sep-18 15:48 35.236458 -120.635999 43 206ft 0kts
11-Sep-18 15:49 35.236475 -120.635979 44 207ft 0kts
11-Sep-18 15:50 35.236491 -120.635959 44 207ft 0kts
11-Sep-18 15:51 35.236508 -120.635939 44 207ft 0kts
11-Sep-18 15:52 35.236524 -120.635920 44 207ft 0kts

Navigation Log

Ident Type
1. KSBP Airport
2. KSBP Airport